Singapur, Malaysia

3:11 PM +08 en Junio 29, 2017 (GMT +0800)
Changi | | Change Station

Alt 52 ft 1.37 °N, 103.98 °E | Updated 11 minutes ago

Parcialmente nublado
Parcialmente nublado
82 ° F
Sensación térmica 90 ° F
N
8
Viento Variable Viento desde ONO

Hoy
Alta -- | Baja -- ° F
--% Posibilidad de precipitaciones
Ayer
Alta -- | Baja -- ° F
Precip. -- pul
Presión 29.83 pul
Visibilidad 6.2 Millas
Nubes Baja 1500 ft
Baja 1700 ft
Nubes dispersas 26000 ft
Índice de calor 90 ° F
Punto de rocío 75 ° F
Humedad 79%
Precipitaciones 0.00 pul
Espesor de la nieve No disponible.
7:01 AM 7:13 PM
Creciente, 32% visible
METAR WSSS 290700Z 29007KT 250V340 9999 VCSH FEW015 FEW017CB SCT260 28/24 Q1010 NOSIG
Presión 29.83 pul
Visibilidad 6.2 Millas
Nubes Baja 1500 ft
Baja 1700 ft
Nubes dispersas 26000 ft
Índice de calor 90 ° F
Punto de rocío 75 ° F
Humedad 79%
Precipitaciones 0.00 pul
Espesor de la nieve No disponible.
7:01 AM 7:13 PM
Creciente, 32% visible
METAR WSSS 290700Z 29007KT 250V340 9999 VCSH FEW015 FEW017CB SCT260 28/24 Q1010 NOSIG

Get Severe Weather Alerts

Thanks for signing up!

Be on the lookout for a verification email in your inbox.

You'll start receiving the daily forecast at 6 AM.

×

10-Day Weather Forecast

No radar image for this location.
×

Almanac

Astronomía

Jun. 29, 2017 Salida Puesta
Hora real
Crepúsculo civil
Crepúsculo náutico
Crepúsculo astronómico
Luna
Horas de luz
Horas de luz
Tomorrow will be .
, % of the Moon is Illuminated

Extremos de hoy

Máximos del país Bajas del país

Community

WunderPhotos

Category 6

Welcome to Category 6. This is the collective home for Weather Underground's featured writeups by Dr. Jeff Masters (right), Bob Henson (left), Chris Burt, and other regular contributors.

Nearby

Calidad del aire

  Calidad del aire Índice AQ Contaminante
Not available.

Grosos de nieve

Estación Profundido Altura

Actividad de terremotos

Ciudad Distance Mag. Tiempo y dato
Magnitud mínima muestra es 2,5.

Temperaturas de aguas costeras

Lugar Temperatura

Stations

Estaciones meteorológicas cercanas

Ubicación de la estación Temp. Vientos helados Punto de rocío Humedad Viento Precip. Alt Actualizado Tipo